sensor_id;sensor_type;location;lat;lon;timestamp;temperature;humidity
58513;DHT22;44302;47.914;10.642;2023-02-28T07:44:28;-4.00;99.90
58513;DHT22;44302;47.914;10.642;2023-02-28T09:23:44;-3.00;99.90
58513;DHT22;44302;47.914;10.642;2023-02-28T09:27:53;-2.80;99.90
58513;DHT22;44302;47.914;10.642;2023-02-28T09:35:59;-2.70;99.90
58513;DHT22;44302;47.914;10.642;2023-02-28T09:39:59;-2.60;99.90
58513;DHT22;44302;47.914;10.642;2023-02-28T09:44:01;-2.40;99.90
58513;DHT22;44302;47.914;10.642;2023-02-28T09:48:03;-2.30;99.90
58513;DHT22;44302;47.914;10.642;2023-02-28T09:52:09;-2.10;99.90
58513;DHT22;44302;47.914;10.642;2023-02-28T09:56:24;-2.30;99.90
58513;DHT22;44302;47.914;10.642;2023-02-28T10:00:18;-2.30;99.90
58513;DHT22;44302;47.914;10.642;2023-02-28T10:05:28;-2.30;99.90
58513;DHT22;44302;47.914;10.642;2023-02-28T10:08:05;-2.30;99.90
58513;DHT22;44302;47.914;10.642;2023-02-28T10:16:15;-2.30;99.90
58513;DHT22;44302;47.914;10.642;2023-02-28T10:21:38;-2.30;99.90
58513;DHT22;44302;47.914;10.642;2023-02-28T10:26:42;-2.20;99.90
58513;DHT22;44302;47.914;10.642;2023-02-28T10:29:10;-2.10;99.90
58513;DHT22;44302;47.914;10.642;2023-02-28T10:31:36;-2.00;99.90
58513;DHT22;44302;47.914;10.642;2023-02-28T10:34:01;-2.10;99.90
58513;DHT22;44302;47.914;10.642;2023-02-28T10:36:28;-2.00;99.90
58513;DHT22;44302;47.914;10.642;2023-02-28T10:38:54;-1.90;99.90
58513;DHT22;44302;47.914;10.642;2023-02-28T10:41:29;-2.00;99.90
58513;DHT22;44302;47.914;10.642;2023-02-28T10:44:14;-2.20;99.90
58513;DHT22;44302;47.914;10.642;2023-02-28T10:46:41;-2.20;99.90
58513;DHT22;44302;47.914;10.642;2023-02-28T10:49:17;-2.10;99.90
58513;DHT22;44302;47.914;10.642;2023-02-28T10:51:46;-2.10;99.90
58513;DHT22;44302;47.914;10.642;2023-02-28T10:54:34;-2.10;99.90
58513;DHT22;44302;47.914;10.642;2023-02-28T10:57:22;-2.00;99.90
58513;DHT22;44302;47.914;10.642;2023-02-28T11:00:16;-1.90;99.90
58513;DHT22;44302;47.914;10.642;2023-02-28T11:02:42;-1.90;99.90
58513;DHT22;44302;47.914;10.642;2023-02-28T11:05:33;-1.90;99.90
58513;DHT22;44302;47.914;10.642;2023-02-28T11:10:37;-2.10;99.90
58513;DHT22;44302;47.914;10.642;2023-02-28T11:13:03;-1.90;99.90
58513;DHT22;44302;47.914;10.642;2023-02-28T11:15:32;-1.80;99.90
58513;DHT22;44302;47.914;10.642;2023-02-28T11:18:17;-1.70;99.90
58513;DHT22;44302;47.914;10.642;2023-02-28T11:20:52;-1.80;99.90
58513;DHT22;44302;47.914;10.642;2023-02-28T11:23:19;-1.80;99.90
58513;DHT22;44302;47.914;10.642;2023-02-28T11:25:51;-1.70;99.90
58513;DHT22;44302;47.914;10.642;2023-02-28T11:28:34;-1.80;99.90
58513;DHT22;44302;47.914;10.642;2023-02-28T11:33:51;-1.70;99.90
58513;DHT22;44302;47.914;10.642;2023-02-28T11:38:45;-1.50;99.90
58513;DHT22;44302;47.914;10.642;2023-02-28T11:41:28;-1.50;99.90
58513;DHT22;44302;47.914;10.642;2023-02-28T11:46:48;-1.60;99.90
58513;DHT22;44302;47.914;10.642;2023-02-28T11:54:35;-1.40;99.90
58513;DHT22;44302;47.914;10.642;2023-02-28T11:57:29;-1.40;99.90
58513;DHT22;44302;47.914;10.642;2023-02-28T12:06:18;-1.20;99.90
58513;DHT22;44302;47.914;10.642;2023-02-28T12:12:11;-1.40;99.90
58513;DHT22;44302;47.914;10.642;2023-02-28T12:23:10;-1.30;99.90
58513;DHT22;44302;47.914;10.642;2023-02-28T12:28:35;-1.20;99.90
58513;DHT22;44302;47.914;10.642;2023-02-28T12:31:06;-1.10;99.90
58513;DHT22;44302;47.914;10.642;2023-02-28T12:33:38;-1.20;99.90
58513;DHT22;44302;47.914;10.642;2023-02-28T12:36:10;-1.20;99.90
58513;DHT22;44302;47.914;10.642;2023-02-28T12:38:47;-1.20;99.90
58513;DHT22;44302;47.914;10.642;2023-02-28T12:44:12;-1.10;99.90
58513;DHT22;44302;47.914;10.642;2023-02-28T12:46:43;-1.20;99.90
58513;DHT22;44302;47.914;10.642;2023-02-28T12:49:28;-1.20;99.90
58513;DHT22;44302;47.914;10.642;2023-02-28T12:51:57;-1.00;99.90
58513;DHT22;44302;47.914;10.642;2023-02-28T12:54:29;-1.00;99.90
58513;DHT22;44302;47.914;10.642;2023-02-28T12:57:16;-1.00;99.90
58513;DHT22;44302;47.914;10.642;2023-02-28T12:59:54;-1.00;99.90
58513;DHT22;44302;47.914;10.642;2023-02-28T13:02:41;-1.00;99.90
58513;DHT22;44302;47.914;10.642;2023-02-28T13:10:43;-1.00;99.90
58513;DHT22;44302;47.914;10.642;2023-02-28T13:13:21;-1.00;99.90
58513;DHT22;44302;47.914;10.642;2023-02-28T13:16:06;-1.00;99.90
58513;DHT22;44302;47.914;10.642;2023-02-28T13:18:36;-0.90;99.90
58513;DHT22;44302;47.914;10.642;2023-02-28T13:21:04;-0.80;99.90
58513;DHT22;44302;47.914;10.642;2023-02-28T13:23:41;-0.90;99.90
58513;DHT22;44302;47.914;10.642;2023-02-28T13:40:44;-1.10;99.90
58513;DHT22;44302;47.914;10.642;2023-02-28T13:42:49;-1.10;99.90
58513;DHT22;44302;47.914;10.642;2023-02-28T13:45:27;-1.10;99.90
58513;DHT22;44302;47.914;10.642;2023-02-28T13:48:02;-1.00;99.90
58513;DHT22;44302;47.914;10.642;2023-02-28T13:50:35;-1.10;99.90
58513;DHT22;44302;47.914;10.642;2023-02-28T13:55:38;-0.80;99.90
58513;DHT22;44302;47.914;10.642;2023-02-28T14:06:33;-0.70;99.90
58513;DHT22;44302;47.914;10.642;2023-02-28T14:11:36;-0.60;99.90
58513;DHT22;44302;47.914;10.642;2023-02-28T14:14:03;-0.60;99.90
58513;DHT22;44302;47.914;10.642;2023-02-28T14:16:41;-0.60;99.90
58513;DHT22;44302;47.914;10.642;2023-02-28T14:19:24;-0.60;99.90
58513;DHT22;44302;47.914;10.642;2023-02-28T14:31:13;-0.20;99.90
58513;DHT22;44302;47.914;10.642;2023-02-28T14:33:57;0.20;99.90
58513;DHT22;44302;47.914;10.642;2023-02-28T14:36:33;0.30;99.90
58513;DHT22;44302;47.914;10.642;2023-02-28T14:39:24;0.40;99.90
58513;DHT22;44302;47.914;10.642;2023-02-28T14:41:51;0.50;99.90
58513;DHT22;44302;47.914;10.642;2023-02-28T14:46:44;0.40;99.90
58513;DHT22;44302;47.914;10.642;2023-02-28T14:49:19;0.40;99.90
58513;DHT22;44302;47.914;10.642;2023-02-28T14:51:49;0.40;99.90
58513;DHT22;44302;47.914;10.642;2023-02-28T14:54:17;0.30;99.90
58513;DHT22;44302;47.914;10.642;2023-02-28T14:56:49;0.30;99.90
58513;DHT22;44302;47.914;10.642;2023-02-28T14:59:27;0.30;99.90
58513;DHT22;44302;47.914;10.642;2023-02-28T15:02:15;0.30;99.90
58513;DHT22;44302;47.914;10.642;2023-02-28T15:04:41;0.30;99.90
58513;DHT22;44302;47.914;10.642;2023-02-28T15:07:14;0.20;99.90
58513;DHT22;44302;47.914;10.642;2023-02-28T15:09:40;0.20;99.90
58513;DHT22;44302;47.914;10.642;2023-02-28T15:12:06;0.30;99.90
58513;DHT22;44302;47.914;10.642;2023-02-28T15:14:34;0.30;99.90
58513;DHT22;44302;47.914;10.642;2023-02-28T15:17:08;0.50;99.90
58513;DHT22;44302;47.914;10.642;2023-02-28T15:19:41;0.60;99.90
58513;DHT22;44302;47.914;10.642;2023-02-28T15:22:17;0.60;99.90
58513;DHT22;44302;47.914;10.642;2023-02-28T15:24:47;0.50;99.90
58513;DHT22;44302;47.914;10.642;2023-02-28T15:27:27;0.60;99.90
58513;DHT22;44302;47.914;10.642;2023-02-28T15:29:57;0.40;99.90
58513;DHT22;44302;47.914;10.642;2023-02-28T15:32:32;0.40;99.90
58513;DHT22;44302;47.914;10.642;2023-02-28T15:34:59;0.30;99.90
58513;DHT22;44302;47.914;10.642;2023-02-28T15:37:52;0.30;99.90
58513;DHT22;44302;47.914;10.642;2023-02-28T15:40:36;0.20;99.90
58513;DHT22;44302;47.914;10.642;2023-02-28T15:45:49;0.10;99.90
58513;DHT22;44302;47.914;10.642;2023-02-28T15:48:28;0.30;99.90
58513;DHT22;44302;47.914;10.642;2023-02-28T15:53:31;0.10;99.90
58513;DHT22;44302;47.914;10.642;2023-02-28T15:56:01;0.10;99.90
58513;DHT22;44302;47.914;10.642;2023-02-28T15:58:27;-0.20;99.90
58513;DHT22;44302;47.914;10.642;2023-02-28T16:01:16;-0.10;99.90
58513;DHT22;44302;47.914;10.642;2023-02-28T16:03:48;-0.10;99.90
58513;DHT22;44302;47.914;10.642;2023-02-28T16:06:43;-0.10;99.90
58513;DHT22;44302;47.914;10.642;2023-02-28T16:09:14;-0.30;99.90
58513;DHT22;44302;47.914;10.642;2023-02-28T16:11:47;-0.20;99.90
58513;DHT22;44302;47.914;10.642;2023-02-28T16:14:19;-0.20;99.90
58513;DHT22;44302;47.914;10.642;2023-02-28T16:16:51;-0.20;99.90
58513;DHT22;44302;47.914;10.642;2023-02-28T16:19:17;-0.30;99.90
58513;DHT22;44302;47.914;10.642;2023-02-28T16:21:43;-0.40;99.90
